Time;durP1;ratioP1;P1;durP2;ratioP2;P2;SDS_P1;SDS_P2;PMS_P1;PMS_P2;Temp;Humidity;BMP_temperature;BMP_pressure;BME280_temperature;BME280_humidity;BME280_pressure;Samples;Min_cycle;Max_cycle;Signal;HPM_P1;HPM_P2
2023/03/01 00:00:39;;;;;;;20.52;11.25;;;;;;;;;;5092180;28;20016;-62
2023/03/01 00:03:05;;;;;;;20.23;11.48;;;;;;;;;;5074332;28;20039;-62
2023/03/01 00:05:31;;;;;;;18.95;11.10;;;;;;;;;;5072163;28;20020;-62
2023/03/01 00:07:58;;;;;;;20.83;11.57;;;;;;;;;;5091509;28;20031;-62
2023/03/01 00:10:23;;;;;;;21.23;10.88;;;;;;;;;;5073700;28;20024;-62
2023/03/01 00:12:50;;;;;;;19.70;11.60;;;;;;;;;;5073811;28;20036;-62
2023/03/01 00:15:16;;;;;;;21.35;11.27;;;;;;;;;;5091914;28;20027;-62
2023/03/01 00:17:42;;;;;;;18.70;11.00;;;;;;;;;;5092206;28;20028;-62
2023/03/01 00:20:09;;;;;;;19.10;11.70;;;;;;;;;;5091578;28;20483;-62
2023/03/01 00:22:36;;;;;;;17.98;10.40;;;;;;;;;;5091598;28;20565;-61
2023/03/01 00:25:02;;;;;;;19.42;10.95;;;;;;;;;;5091698;28;20028;-62
2023/03/01 00:27:27;;;;;;;22.02;11.73;;;;;;;;;;5087518;28;20032;-61
2023/03/01 00:29:54;;;;;;;18.33;11.57;;;;;;;;;;5072179;28;20024;-62
2023/03/01 00:32:20;;;;;;;20.10;11.38;;;;;;;;;;5065622;23;20037;-60
2023/03/01 00:34:53;;;;;;;19.75;11.15;;;;;;;;;;5032539;28;20096;-59
2023/03/01 00:37:20;;;;;;;18.88;11.00;;;;;;;;;;5033366;28;20025;-61
2023/03/01 00:39:46;;;;;;;18.55;10.48;;;;;;;;;;5033429;28;20029;-58
2023/03/01 00:42:12;;;;;;;19.85;10.88;;;;;;;;;;5033084;28;20022;-60
2023/03/01 00:44:38;;;;;;;25.88;15.85;;;;;;;;;;5032951;28;20033;-61
2023/03/01 00:47:04;;;;;;;22.15;13.40;;;;;;;;;;5033031;28;20053;-60
2023/03/01 00:49:30;;;;;;;18.40;11.07;;;;;;;;;;5033480;28;20104;-62
2023/03/01 00:51:56;;;;;;;19.58;11.63;;;;;;;;;;5033847;28;20029;-60
2023/03/01 00:54:22;;;;;;;20.02;12.00;;;;;;;;;;5033832;28;20021;-60
2023/03/01 00:56:48;;;;;;;19.80;11.60;;;;;;;;;;5033803;28;20374;-60
2023/03/01 00:59:14;;;;;;;19.33;11.30;;;;;;;;;;5033782;28;20108;-58
2023/03/01 01:01:40;;;;;;;18.95;11.45;;;;;;;;;;5033726;28;20478;-60
2023/03/01 01:04:08;;;;;;;21.48;11.80;;;;;;;;;;5033448;28;20036;-60
2023/03/01 01:06:42;;;;;;;19.55;12.02;;;;;;;;;;5033702;28;20032;-59
2023/03/01 01:09:08;;;;;;;18.88;11.57;;;;;;;;;;5016026;28;20041;-58
2023/03/01 01:11:37;;;;;;;19.30;11.32;;;;;;;;;;5033313;28;20540;-60
2023/03/01 01:14:04;;;;;;;20.90;12.35;;;;;;;;;;5033266;28;20021;-60
2023/03/01 01:16:30;;;;;;;20.73;11.93;;;;;;;;;;5015700;28;20045;-60
2023/03/01 01:18:57;;;;;;;21.33;11.93;;;;;;;;;;5033420;28;20061;-60
2023/03/01 01:21:24;;;;;;;19.77;11.88;;;;;;;;;;5015454;28;20030;-61
2023/03/01 01:23:50;;;;;;;21.05;11.60;;;;;;;;;;5015300;28;20026;-60
2023/03/01 01:26:18;;;;;;;19.42;12.00;;;;;;;;;;5033262;28;20548;-60
2023/03/01 01:28:44;;;;;;;19.05;11.90;;;;;;;;;;5033249;28;20363;-61
2023/03/01 01:31:10;;;;;;;19.63;11.45;;;;;;;;;;5033100;28;20025;-60
2023/03/01 01:33:37;;;;;;;19.27;11.85;;;;;;;;;;5032896;28;20025;-59
2023/03/01 01:36:03;;;;;;;20.05;11.75;;;;;;;;;;5033313;28;20030;-59
2023/03/01 01:38:29;;;;;;;20.08;12.25;;;;;;;;;;5033180;28;20076;-59
2023/03/01 01:40:56;;;;;;;19.63;11.55;;;;;;;;;;5032067;28;20021;-59
2023/03/01 01:43:21;;;;;;;20.13;11.70;;;;;;;;;;5032783;28;20049;-59
2023/03/01 01:45:48;;;;;;;19.50;12.00;;;;;;;;;;5033106;28;20505;-59
2023/03/01 01:48:17;;;;;;;21.15;12.30;;;;;;;;;;5032852;28;20115;-59
2023/03/01 01:50:44;;;;;;;;;;;;;;;;;;5015543;28;20034;-59
2023/03/01 01:53:13;;;;;;;20.67;12.10;;;;;;;;;;5032467;28;19952;-59
2023/03/01 01:55:39;;;;;;;;;;;;;;;;;;5033096;28;20041;-59
2023/03/01 01:58:06;;;;;;;20.30;12.05;;;;;;;;;;5032845;28;19905;-56
2023/03/01 02:00:32;;;;;;;20.98;12.25;;;;;;;;;;5014939;28;20025;-59
2023/03/01 02:03:00;;;;;;;20.73;12.20;;;;;;;;;;5032714;28;20027;-61
2023/03/01 02:05:38;;;;;;;20.63;12.70;;;;;;;;;;5032753;28;20017;-59
2023/03/01 02:08:04;;;;;;;20.50;12.73;;;;;;;;;;5039905;28;20029;-60
2023/03/01 02:10:33;;;;;;;21.48;12.40;;;;;;;;;;5052788;28;20025;-60
2023/03/01 02:12:59;;;;;;;20.40;12.93;;;;;;;;;;5052349;28;20385;-60
2023/03/01 02:15:26;;;;;;;20.20;12.00;;;;;;;;;;5052501;28;20030;-60
2023/03/01 02:17:52;;;;;;;20.42;12.80;;;;;;;;;;5034753;28;20107;-61
2023/03/01 02:20:28;;;;;;;20.60;12.43;;;;;;;;;;5052622;28;20021;-60
2023/03/01 02:22:54;;;;;;;20.80;12.45;;;;;;;;;;5052551;28;20025;-59
2023/03/01 02:25:38;;;;;;;17.95;12.40;;;;;;;;;;5051908;28;20029;-60
2023/03/01 02:28:14;;;;;;;21.95;13.55;;;;;;;;;;5052090;28;20025;-60
2023/03/01 02:31:41;;;;;;;20.08;12.10;;;;;;;;;;5034392;28;20078;-59
2023/03/01 02:33:27;;;;;;;20.08;12.43;;;;;;;;;;5051464;28;20460;-58
2023/03/01 02:35:54;;;;;;;22.08;12.45;;;;;;;;;;5052001;28;20075;-56
2023/03/01 02:38:21;;;;;;;19.83;12.23;;;;;;;;;;5052396;28;20032;-53
2023/03/01 02:40:48;;;;;;;20.80;12.52;;;;;;;;;;5052673;28;20035;-57
2023/03/01 02:43:15;;;;;;;20.63;12.45;;;;;;;;;;5033884;28;20106;-59
2023/03/01 02:45:43;;;;;;;20.52;12.55;;;;;;;;;;5051956;28;20028;-60
2023/03/01 02:48:09;;;;;;;20.25;12.50;;;;;;;;;;5034900;28;20020;-60
2023/03/01 02:50:44;;;;;;;21.90;12.88;;;;;;;;;;5052610;28;20537;-60
2023/03/01 02:53:18;;;;;;;20.13;12.30;;;;;;;;;;5033831;28;20115;-59
2023/03/01 02:55:44;;;;;;;22.15;12.77;;;;;;;;;;5052693;28;20033;-59
2023/03/01 02:58:10;;;;;;;22.77;13.07;;;;;;;;;;5052642;28;20482;-58
2023/03/01 03:00:39;;;;;;;22.23;13.23;;;;;;;;;;5052626;28;20031;-59
2023/03/01 03:03:06;;;;;;;20.55;12.90;;;;;;;;;;5052238;28;20021;-58
2023/03/01 03:05:32;;;;;;;19.80;12.52;;;;;;;;;;5034699;28;20025;-59
2023/03/01 03:08:00;;;;;;;24.20;13.88;;;;;;;;;;5034502;28;20027;-60
2023/03/01 03:10:36;;;;;;;20.17;12.98;;;;;;;;;;5040436;28;20026;-58
2023/03/01 03:13:04;;;;;;;22.35;13.05;;;;;;;;;;5031876;28;20029;-59
2023/03/01 03:15:30;;;;;;;21.00;12.27;;;;;;;;;;5032099;28;20548;-57
2023/03/01 03:17:57;;;;;;;21.73;13.18;;;;;;;;;;5031910;28;20030;-59
2023/03/01 03:20:24;;;;;;;22.33;13.43;;;;;;;;;;5031956;28;20217;-59
2023/03/01 03:22:52;;;;;;;21.75;13.18;;;;;;;;;;5031986;28;20036;-59
2023/03/01 03:25:18;;;;;;;20.42;12.40;;;;;;;;;;5031696;28;20034;-59
2023/03/01 03:27:45;;;;;;;20.33;12.18;;;;;;;;;;5031943;28;20030;-58
2023/03/01 03:30:13;;;;;;;20.17;12.77;;;;;;;;;;5031561;28;20237;-59
2023/03/01 03:32:40;;;;;;;21.73;14.27;;;;;;;;;;5031428;28;20378;-59
2023/03/01 03:35:10;;;;;;;23.67;12.48;;;;;;;;;;5031194;28;20030;-59
2023/03/01 03:40:25;;;;;;;20.35;12.40;;;;;;;;;;5031798;28;20033;-59
2023/03/01 03:42:51;;;;;;;19.20;12.35;;;;;;;;;;5013571;28;20124;-57
2023/03/01 03:45:17;;;;;;;20.88;12.68;;;;;;;;;;5031276;28;20109;-59
2023/03/01 03:47:43;;;;;;;20.63;12.18;;;;;;;;;;5031215;28;20163;-56
2023/03/01 03:50:10;;;;;;;22.75;12.40;;;;;;;;;;5031301;28;20104;-58
2023/03/01 03:52:36;;;;;;;19.95;12.88;;;;;;;;;;5031205;28;20072;-61
2023/03/01 03:55:02;;;;;;;19.88;12.18;;;;;;;;;;5031076;28;20045;-59
2023/03/01 03:57:28;;;;;;;23.02;12.05;;;;;;;;;;5013361;28;20026;-56
2023/03/01 03:59:54;;;;;;;22.05;12.90;;;;;;;;;;5031298;28;20362;-59
2023/03/01 04:02:24;;;;;;;21.35;12.55;;;;;;;;;;5031156;28;20068;-59
2023/03/01 04:04:50;;;;;;;20.00;12.15;;;;;;;;;;5033168;28;20029;-59
2023/03/01 04:07:16;;;;;;;20.88;12.15;;;;;;;;;;5017058;28;20393;-59
2023/03/01 04:09:43;;;;;;;20.30;11.73;;;;;;;;;;5017062;28;20393;-58
2023/03/01 04:12:09;;;;;;;20.40;12.55;;;;;;;;;;5034645;28;20083;-60
2023/03/01 04:14:35;;;;;;;19.77;12.15;;;;;;;;;;5034405;28;20052;-61
2023/03/01 04:17:01;;;;;;;20.42;12.68;;;;;;;;;;5034581;28;20053;-58
2023/03/01 04:19:35;;;;;;;21.30;12.98;;;;;;;;;;5017106;28;20028;-58
2023/03/01 04:22:07;;;;;;;19.85;11.95;;;;;;;;;;5034546;28;20053;-59
2023/03/01 04:24:33;;;;;;;21.77;13.23;;;;;;;;;;5034347;28;20033;-58
2023/03/01 04:26:59;;;;;;;21.08;12.27;;;;;;;;;;5034344;28;20021;-58
2023/03/01 04:29:25;;;;;;;20.17;12.05;;;;;;;;;;5016718;28;20119;-60
2023/03/01 04:31:51;;;;;;;20.77;12.68;;;;;;;;;;5034140;28;20030;-60
2023/03/01 04:34:17;;;;;;;21.92;12.27;;;;;;;;;;5033971;28;20615;-60
2023/03/01 04:36:43;;;;;;;19.77;12.13;;;;;;;;;;5034232;28;20053;-60
2023/03/01 04:39:11;;;;;;;21.50;13.27;;;;;;;;;;5034526;28;20041;-60
2023/03/01 04:41:42;;;;;;;22.80;13.05;;;;;;;;;;5034024;28;20025;-60
2023/03/01 04:44:09;;;;;;;20.83;12.40;;;;;;;;;;5016009;28;20043;-58
2023/03/01 04:46:35;;;;;;;21.33;12.68;;;;;;;;;;5016204;28;20045;-59
2023/03/01 04:49:01;;;;;;;21.58;12.65;;;;;;;;;;5016397;28;20511;-60
2023/03/01 04:51:28;;;;;;;21.95;12.25;;;;;;;;;;5033808;28;20088;-59
2023/03/01 04:53:54;;;;;;;23.98;13.48;;;;;;;;;;5033686;28;20034;-59
2023/03/01 04:56:20;;;;;;;22.98;13.77;;;;;;;;;;5033979;28;20029;-59
2023/03/01 04:58:46;;;;;;;20.30;12.75;;;;;;;;;;5033901;28;20035;-55
2023/03/01 05:01:17;;;;;;;25.77;13.65;;;;;;;;;;5033931;28;20060;-52
2023/03/01 05:03:44;;;;;;;21.42;13.60;;;;;;;;;;5033557;28;20032;-55
2023/03/01 05:06:10;;;;;;;23.00;13.38;;;;;;;;;;5033643;28;20108;-58
2023/03/01 05:08:36;;;;;;;20.88;13.10;;;;;;;;;;5033430;28;20029;-57
2023/03/01 05:11:03;;;;;;;19.75;13.23;;;;;;;;;;5033497;28;20026;-57
2023/03/01 05:13:29;;;;;;;24.60;14.40;;;;;;;;;;5033163;28;20021;-56
2023/03/01 05:15:56;;;;;;;20.42;13.35;;;;;;;;;;5033218;28;20022;-56
2023/03/01 05:18:25;;;;;;;20.90;13.23;;;;;;;;;;5033215;28;20026;-58
2023/03/01 05:20:52;;;;;;;23.80;15.05;;;;;;;;;;5033364;28;20048;-59
2023/03/01 05:23:18;;;;;;;24.67;14.68;;;;;;;;;;5033285;28;20571;-58
2023/03/01 05:25:44;;;;;;;20.02;13.20;;;;;;;;;;5015639;28;20099;-59
2023/03/01 05:28:11;;;;;;;19.73;14.13;;;;;;;;;;5033305;28;20478;-58
2023/03/01 05:30:40;;;;;;;24.10;14.82;;;;;;;;;;5033057;28;20025;-58
2023/03/01 05:33:12;;;;;;;22.05;13.75;;;;;;;;;;5014608;28;20025;-57
2023/03/01 05:35:39;;;;;;;23.85;13.27;;;;;;;;;;5032832;28;20108;-58
2023/03/01 05:38:05;;;;;;;22.17;14.77;;;;;;;;;;5015241;28;20552;-59
2023/03/01 05:40:33;;;;;;;23.13;14.30;;;;;;;;;;5015028;28;20029;-60
2023/03/01 05:42:59;;;;;;;24.20;14.18;;;;;;;;;;5014853;28;20120;-59
2023/03/01 05:45:26;;;;;;;22.95;14.50;;;;;;;;;;5014982;28;20029;-59
2023/03/01 05:47:54;;;;;;;21.95;14.68;;;;;;;;;;5032683;28;20157;-59
2023/03/01 05:50:21;;;;;;;21.98;14.02;;;;;;;;;;5032606;28;20028;-58
2023/03/01 05:52:48;;;;;;;21.52;13.25;;;;;;;;;;5014828;28;20041;-60
2023/03/01 05:55:15;;;;;;;20.80;13.02;;;;;;;;;;5014588;28;20363;-58
2023/03/01 05:57:41;;;;;;;21.00;13.35;;;;;;;;;;5041573;28;20441;-59
2023/03/01 06:00:08;;;;;;;24.55;14.75;;;;;;;;;;5047618;28;20022;-58
2023/03/01 06:02:34;;;;;;;23.77;14.15;;;;;;;;;;5014679;28;20053;-59
2023/03/01 06:05:00;;;;;;;24.92;15.13;;;;;;;;;;5031876;28;20087;-58
2023/03/01 06:07:26;;;;;;;23.27;15.20;;;;;;;;;;5030017;28;20088;-55
2023/03/01 06:09:52;;;;;;;24.17;14.88;;;;;;;;;;5013801;28;20030;-56
2023/03/01 06:12:18;;;;;;;22.63;13.93;;;;;;;;;;5031967;28;20116;-59
2023/03/01 06:14:46;;;;;;;22.13;13.65;;;;;;;;;;5031946;28;20017;-59
2023/03/01 06:17:12;;;;;;;22.73;14.90;;;;;;;;;;5014199;28;20116;-59
2023/03/01 06:19:38;;;;;;;22.58;14.23;;;;;;;;;;5032098;28;20045;-59
2023/03/01 06:22:04;;;;;;;21.95;14.77;;;;;;;;;;5031870;28;20145;-57
2023/03/01 06:24:30;;;;;;;22.13;15.10;;;;;;;;;;5031644;28;20082;-60
2023/03/01 06:26:56;;;;;;;28.05;16.13;;;;;;;;;;5013178;28;20094;-57
2023/03/01 06:29:23;;;;;;;22.08;15.35;;;;;;;;;;5031395;28;20489;-59
2023/03/01 06:31:49;;;;;;;22.20;13.93;;;;;;;;;;5032257;28;20493;-59
2023/03/01 06:34:15;;;;;;;22.92;14.88;;;;;;;;;;5012499;28;20120;-57
2023/03/01 06:36:41;;;;;;;25.75;15.27;;;;;;;;;;5031209;28;20444;-59
2023/03/01 06:39:07;;;;;;;22.90;15.07;;;;;;;;;;5031567;28;20025;-59
2023/03/01 06:41:34;;;;;;;27.60;15.13;;;;;;;;;;5031354;28;20021;-58
2023/03/01 06:44:00;;;;;;;25.67;15.57;;;;;;;;;;5031593;28;20040;-60
2023/03/01 06:46:26;;;;;;;23.38;15.40;;;;;;;;;;5013909;28;20025;-57
2023/03/01 06:48:52;;;;;;;23.27;14.60;;;;;;;;;;5014110;28;20029;-58
2023/03/01 06:51:18;;;;;;;23.23;15.45;;;;;;;;;;5031817;28;20029;-59
2023/03/01 06:53:46;;;;;;;25.67;15.93;;;;;;;;;;5031041;28;20036;-56
2023/03/01 06:56:12;;;;;;;24.85;14.82;;;;;;;;;;5031604;28;20025;-59
2023/03/01 06:58:38;;;;;;;22.33;13.85;;;;;;;;;;5030649;28;20055;-59
2023/03/01 07:01:07;;;;;;;25.45;13.77;;;;;;;;;;5031058;28;20431;-58
2023/03/01 07:03:33;;;;;;;21.73;13.50;;;;;;;;;;5030753;28;20025;-57
2023/03/01 07:05:59;;;;;;;22.48;14.05;;;;;;;;;;5031031;28;20025;-58
2023/03/01 07:08:25;;;;;;;22.83;14.07;;;;;;;;;;5030968;28;20029;-58
2023/03/01 07:10:55;;;;;;;24.98;14.10;;;;;;;;;;5013248;28;20036;-56
2023/03/01 07:13:21;;;;;;;21.77;13.50;;;;;;;;;;5031240;28;20116;-59
2023/03/01 07:15:47;;;;;;;24.77;14.43;;;;;;;;;;5031362;28;20103;-58
2023/03/01 07:18:13;;;;;;;21.75;13.90;;;;;;;;;;5029789;28;20032;-60
2023/03/01 07:20:39;;;;;;;22.05;12.98;;;;;;;;;;5029797;28;20030;-52
2023/03/01 07:23:06;;;;;;;21.05;13.75;;;;;;;;;;5030341;28;20148;-56
2023/03/01 07:25:32;;;;;;;23.75;13.75;;;;;;;;;;5030939;28;20033;-58
2023/03/01 07:27:59;;;;;;;22.70;14.77;;;;;;;;;;5030536;28;20489;-60
2023/03/01 07:30:28;;;;;;;22.80;12.63;;;;;;;;;;5030946;28;20118;-59
2023/03/01 07:32:55;;;;;;;25.30;13.23;;;;;;;;;;5030265;28;20075;-55
2023/03/01 07:35:21;;;;;;;22.42;13.80;;;;;;;;;;5030546;28;20025;-59
2023/03/01 07:37:47;;;;;;;21.35;11.73;;;;;;;;;;5031114;28;20029;-59
2023/03/01 07:40:13;;;;;;;21.88;11.95;;;;;;;;;;5033836;28;20026;-60
2023/03/01 07:42:39;;;;;;;24.00;11.98;;;;;;;;;;5034808;28;20091;-60
2023/03/01 07:45:06;;;;;;;20.83;12.25;;;;;;;;;;5016707;28;20449;-60
2023/03/01 07:47:32;;;;;;;24.48;15.30;;;;;;;;;;5033971;28;20033;-58
2023/03/01 07:49:59;;;;;;;21.58;12.32;;;;;;;;;;5034746;28;20064;-54
2023/03/01 07:52:25;;;;;;;22.98;13.32;;;;;;;;;;5033960;28;20037;-59
2023/03/01 07:54:51;;;;;;;20.05;12.43;;;;;;;;;;5034020;28;20022;-58
2023/03/01 07:57:17;;;;;;;24.48;14.57;;;;;;;;;;5034660;28;20496;-60
2023/03/01 07:59:43;;;;;;;22.67;12.95;;;;;;;;;;5016741;28;20021;-60
2023/03/01 08:02:09;;;;;;;20.65;11.57;;;;;;;;;;5034410;28;20033;-60
2023/03/01 08:04:35;;;;;;;22.45;13.43;;;;;;;;;;5034307;28;20040;-60
2023/03/01 08:07:01;;;;;;;23.58;14.30;;;;;;;;;;5034461;28;20033;-60
2023/03/01 08:09:27;;;;;;;21.42;12.52;;;;;;;;;;5034288;28;20040;-59
2023/03/01 08:11:54;;;;;;;24.42;12.75;;;;;;;;;;5033852;28;20101;-58
2023/03/01 08:14:20;;;;;;;22.90;12.68;;;;;;;;;;5033891;28;20018;-60
2023/03/01 08:16:49;;;;;;;26.50;13.18;;;;;;;;;;5033975;28;20028;-59
2023/03/01 08:19:15;;;;;;;21.65;12.57;;;;;;;;;;5034289;28;20063;-60
2023/03/01 08:21:41;;;;;;;20.73;11.80;;;;;;;;;;5016344;28;20053;-60
2023/03/01 08:24:07;;;;;;;22.65;12.25;;;;;;;;;;5033871;28;20032;-57
2023/03/01 08:26:34;;;;;;;23.02;12.75;;;;;;;;;;5034093;28;20391;-60
2023/03/01 08:29:01;;;;;;;22.13;12.20;;;;;;;;;;5034013;28;20363;-60
2023/03/01 08:31:29;;;;;;;20.17;12.23;;;;;;;;;;5033850;28;20064;-60
2023/03/01 08:33:55;;;;;;;;;;;;;;;;;;5016491;28;20056;-59
2023/03/01 08:36:23;;;;;;;21.90;13.02;;;;;;;;;;5034152;28;20393;-57
2023/03/01 08:38:49;;;;;;;21.13;12.50;;;;;;;;;;5033949;28;20029;-59
2023/03/01 08:41:15;;;;;;;20.77;12.13;;;;;;;;;;5033828;28;20025;-56
2023/03/01 08:43:41;;;;;;;23.90;13.07;;;;;;;;;;5033578;28;20033;-60
2023/03/01 08:46:07;;;;;;;20.15;12.88;;;;;;;;;;5015961;28;20557;-59
2023/03/01 08:48:33;;;;;;;22.42;12.32;;;;;;;;;;5033883;28;20057;-59
2023/03/01 08:51:09;;;;;;;24.98;13.15;;;;;;;;;;5033409;28;20104;-59
2023/03/01 08:53:37;;;;;;;20.35;12.45;;;;;;;;;;5033423;28;20029;-60
2023/03/01 08:56:03;;;;;;;21.25;12.32;;;;;;;;;;5033565;28;20040;-59
2023/03/01 08:58:29;;;;;;;21.83;13.13;;;;;;;;;;5033641;28;20021;-58
2023/03/01 09:00:58;;;;;;;23.67;12.50;;;;;;;;;;5033583;28;20373;-59
2023/03/01 09:03:25;;;;;;;22.65;12.30;;;;;;;;;;5033283;28;20033;-59
2023/03/01 09:05:55;;;;;;;20.23;12.07;;;;;;;;;;5016079;28;20040;-62
2023/03/01 09:08:21;;;;;;;23.27;12.55;;;;;;;;;;5033388;28;20032;-59
2023/03/01 09:10:47;;;;;;;22.70;12.45;;;;;;;;;;5015530;28;20393;-59
2023/03/01 09:13:13;;;;;;;23.20;12.75;;;;;;;;;;5040855;28;20493;-58
2023/03/01 09:15:39;;;;;;;20.35;12.15;;;;;;;;;;5053612;28;20148;-59
2023/03/01 09:18:05;;;;;;;20.30;12.48;;;;;;;;;;5053485;28;20017;-59
2023/03/01 09:20:32;;;;;;;23.38;13.50;;;;;;;;;;5053377;28;20489;-58
2023/03/01 09:22:58;;;;;;;20.83;13.07;;;;;;;;;;5053560;28;20036;-60
2023/03/01 09:25:24;;;;;;;22.08;13.18;;;;;;;;;;5053232;28;20057;-62
2023/03/01 09:27:54;;;;;;;21.02;13.18;;;;;;;;;;5035522;28;20029;-60
2023/03/01 09:30:21;;;;;;;21.70;13.13;;;;;;;;;;5053309;28;20029;-60
2023/03/01 09:32:47;;;;;;;22.40;12.77;;;;;;;;;;5052934;28;20049;-60
2023/03/01 09:35:13;;;;;;;20.65;12.88;;;;;;;;;;5053132;28;20147;-60
2023/03/01 09:37:44;;;;;;;19.52;12.57;;;;;;;;;;5053082;28;20024;-59
2023/03/01 09:40:15;;;;;;;23.00;14.60;;;;;;;;;;5035038;28;20116;-63
2023/03/01 09:42:46;;;;;;;19.85;12.05;;;;;;;;;;5052563;28;20035;-62
2023/03/01 09:45:20;;;;;;;20.15;12.40;;;;;;;;;;5052342;28;20414;-64
2023/03/01 09:47:46;;;;;;;22.95;12.40;;;;;;;;;;5051292;28;20021;-63
2023/03/01 09:50:12;;;;;;;19.67;12.13;;;;;;;;;;5035119;28;20385;-65
2023/03/01 09:52:38;;;;;;;21.83;12.82;;;;;;;;;;5052506;28;20453;-64
2023/03/01 09:55:09;;;;;;;21.48;12.57;;;;;;;;;;5052393;28;20032;-64
2023/03/01 09:57:56;;;;;;;21.17;13.32;;;;;;;;;;5034283;28;20036;-66
2023/03/01 10:00:25;;;;;;;24.27;15.35;;;;;;;;;;5052536;28;20028;-63
2023/03/01 10:02:54;;;;;;;23.45;13.65;;;;;;;;;;5051601;28;20116;-63
2023/03/01 10:05:26;;;;;;;21.70;13.05;;;;;;;;;;5052448;28;20487;-61
2023/03/01 10:08:01;;;;;;;21.55;13.05;;;;;;;;;;5040674;28;20036;-60
2023/03/01 10:10:34;;;;;;;23.10;12.55;;;;;;;;;;5032484;28;20398;-64
2023/03/01 10:13:13;;;;;;;23.02;13.25;;;;;;;;;;5032278;28;20394;-63
2023/03/01 10:15:42;;;;;;;21.30;13.38;;;;;;;;;;5032357;28;20044;-64
2023/03/01 10:18:13;;;;;;;21.73;12.80;;;;;;;;;;5032363;28;20026;-64
2023/03/01 10:20:51;;;;;;;20.35;12.45;;;;;;;;;;5032189;28;20026;-64
2023/03/01 10:23:17;;;;;;;20.25;13.15;;;;;;;;;;5032085;28;20506;-62
2023/03/01 10:25:47;;;;;;;21.88;13.30;;;;;;;;;;5032000;28;20131;-63
2023/03/01 10:28:16;;;;;;;21.02;13.00;;;;;;;;;;5031892;28;20025;-65
2023/03/01 10:30:43;;;;;;;19.80;12.70;;;;;;;;;;5031997;28;20029;-63
2023/03/01 10:33:15;;;;;;;22.92;13.50;;;;;;;;;;5031426;28;20025;-62
2023/03/01 10:35:41;;;;;;;22.27;15.70;;;;;;;;;;5031711;28;20038;-65
2023/03/01 10:38:08;;;;;;;21.08;13.32;;;;;;;;;;5013952;28;20025;-64
2023/03/01 10:40:35;;;;;;;22.70;13.65;;;;;;;;;;5031788;28;20025;-65
2023/03/01 10:43:03;;;;;;;20.90;14.02;;;;;;;;;;5013802;28;20034;-60
2023/03/01 10:45:32;;;;;;;22.65;14.35;;;;;;;;;;5031840;28;20033;-64
2023/03/01 10:48:06;;;;;;;21.65;13.27;;;;;;;;;;5031919;28;20029;-63
2023/03/01 10:50:32;;;;;;;22.50;13.38;;;;;;;;;;5031694;28;20109;-65
2023/03/01 10:53:03;;;;;;;20.67;12.88;;;;;;;;;;5032077;28;20036;-64
2023/03/01 10:55:29;;;;;;;22.08;13.77;;;;;;;;;;5031851;28;20067;-64
2023/03/01 10:58:07;;;;;;;21.08;13.07;;;;;;;;;;5031431;28;20033;-62
2023/03/01 11:00:33;;;;;;;21.48;13.07;;;;;;;;;;5031839;28;20029;-63
2023/03/01 11:02:59;;;;;;;21.80;13.25;;;;;;;;;;5031598;28;20032;-62
2023/03/01 11:05:28;;;;;;;20.23;13.05;;;;;;;;;;5014220;28;20481;-64
2023/03/01 11:07:58;;;;;;;23.88;14.00;;;;;;;;;;5031865;28;20495;-65
2023/03/01 11:10:26;;;;;;;22.83;15.30;;;;;;;;;;5031414;28;20451;-64
2023/03/01 11:12:53;;;;;;;23.45;13.25;;;;;;;;;;5031058;28;20022;-61
2023/03/01 11:15:21;;;;;;;22.20;13.18;;;;;;;;;;5014199;28;20378;-62
2023/03/01 11:17:47;;;;;;;21.00;13.90;;;;;;;;;;5032469;28;20021;-64
2023/03/01 11:20:13;;;;;;;22.35;13.85;;;;;;;;;;5017254;28;20072;-62
2023/03/01 11:22:52;;;;;;;21.92;15.55;;;;;;;;;;5035681;28;20049;-64
2023/03/01 11:25:19;;;;;;;23.02;14.98;;;;;;;;;;5038174;28;20030;-65
2023/03/01 11:27:46;;;;;;;19.48;13.77;;;;;;;;;;5039683;28;20508;-66
2023/03/01 11:30:22;;;;;;;23.73;15.90;;;;;;;;;;5034277;28;20482;-64
2023/03/01 11:32:51;;;;;;;21.67;14.48;;;;;;;;;;5038124;28;20029;-66
2023/03/01 11:35:21;;;;;;;24.67;15.55;;;;;;;;;;5030558;28;20043;-62
2023/03/01 11:37:50;;;;;;;21.55;15.32;;;;;;;;;;5020296;28;20485;-64
2023/03/01 11:40:17;;;;;;;24.20;14.45;;;;;;;;;;5030995;28;20025;-64
2023/03/01 11:42:55;;;;;;;22.65;15.68;;;;;;;;;;5030335;28;20108;-64
2023/03/01 11:45:23;;;;;;;22.98;15.38;;;;;;;;;;5013567;28;20393;-64
2023/03/01 11:47:52;;;;;;;23.50;15.47;;;;;;;;;;5013301;28;20610;-64
2023/03/01 11:50:38;;;;;;;20.60;14.43;;;;;;;;;;5031118;28;20510;-65
2023/03/01 11:53:12;;;;;;;21.75;15.77;;;;;;;;;;5025702;28;20028;-64
2023/03/01 11:55:47;;;;;;;19.77;15.00;;;;;;;;;;5030673;28;20108;-64
2023/03/01 11:58:22;;;;;;;22.35;15.15;;;;;;;;;;5030799;28;20030;-64
2023/03/01 12:00:54;;;;;;;22.52;16.02;;;;;;;;;;5013146;28;20025;-64
2023/03/01 12:03:39;;;;;;;22.73;15.13;;;;;;;;;;5031078;28;20026;-65
2023/03/01 12:06:05;;;;;;;26.77;16.40;;;;;;;;;;5030700;28;20029;-63
2023/03/01 12:08:43;;;;;;;21.90;15.60;;;;;;;;;;5030174;28;20033;-66
2023/03/01 12:11:28;;;;;;;20.35;15.77;;;;;;;;;;5030455;28;20029;-64
2023/03/01 12:13:54;;;;;;;20.70;14.88;;;;;;;;;;5010387;28;20034;-64
2023/03/01 12:16:23;;;;;;;22.50;15.70;;;;;;;;;;5009479;28;20037;-64
2023/03/01 12:18:58;;;;;;;22.42;15.48;;;;;;;;;;5010719;28;20103;-64
2023/03/01 12:21:30;;;;;;;18.42;13.90;;;;;;;;;;5010886;28;20057;-64
2023/03/01 12:24:11;;;;;;;20.23;15.05;;;;;;;;;;5010694;28;20109;-64
2023/03/01 12:26:45;;;;;;;21.45;16.00;;;;;;;;;;5013985;28;20485;-66
2023/03/01 12:29:25;;;;;;;21.70;15.05;;;;;;;;;;5014564;28;20123;-65
2023/03/01 12:31:54;;;;;;;21.30;15.75;;;;;;;;;;5045761;23;20504;-66
2023/03/01 12:34:43;;;;;;;21.60;16.23;;;;;;;;;;5036466;28;20036;-68
2023/03/01 12:37:09;;;;;;;22.42;15.80;;;;;;;;;;5053350;28;20013;-68
2023/03/01 12:39:54;;;;;;;20.48;15.23;;;;;;;;;;5036851;28;20048;-68
2023/03/01 12:42:28;;;;;;;20.48;16.13;;;;;;;;;;5036899;28;20029;-68
2023/03/01 12:45:02;;;;;;;21.67;15.73;;;;;;;;;;5036497;28;20025;-69
2023/03/01 12:47:28;;;;;;;20.02;14.57;;;;;;;;;;5036875;28;20097;-66
2023/03/01 12:50:00;;;;;;;20.77;14.90;;;;;;;;;;5054990;28;20174;-69
2023/03/01 12:52:32;;;;;;;21.33;14.60;;;;;;;;;;5036830;28;20203;-69
2023/03/01 12:54:59;;;;;;;21.75;15.55;;;;;;;;;;5036645;28;20022;-68
2023/03/01 12:57:38;;;;;;;21.10;15.80;;;;;;;;;;5054190;28;20025;-67
2023/03/01 13:00:23;;;;;;;18.63;14.63;;;;;;;;;;5055684;28;20021;-67
2023/03/01 13:02:49;;;;;;;20.38;15.52;;;;;;;;;;5054085;28;20138;-66
2023/03/01 13:05:15;;;;;;;19.70;15.10;;;;;;;;;;5053860;28;20124;-67
2023/03/01 13:07:49;;;;;;;20.38;15.50;;;;;;;;;;5053426;28;20021;-68
2023/03/01 13:10:25;;;;;;;19.27;14.25;;;;;;;;;;5053199;28;20036;-68
2023/03/01 13:12:57;;;;;;;20.15;14.73;;;;;;;;;;5053371;28;20032;-66
2023/03/01 13:15:23;;;;;;;20.40;14.35;;;;;;;;;;5055670;28;20017;-68
2023/03/01 13:17:49;;;;;;;18.77;14.02;;;;;;;;;;5069605;28;20045;-68
2023/03/01 13:20:17;;;;;;;18.30;14.07;;;;;;;;;;5031868;28;20392;-68
2023/03/01 13:22:45;;;;;;;21.85;14.23;;;;;;;;;;5060807;28;20503;-69
2023/03/01 13:25:13;;;;;;;18.38;13.52;;;;;;;;;;5046847;28;20044;-69
2023/03/01 13:27:39;;;;;;;23.15;14.32;;;;;;;;;;5047149;28;20020;-67
2023/03/01 13:30:25;;;;;;;18.42;13.88;;;;;;;;;;5055212;28;20032;-67
2023/03/01 13:32:51;;;;;;;23.02;15.13;;;;;;;;;;5072795;28;20480;-68
2023/03/01 13:35:18;;;;;;;18.40;12.90;;;;;;;;;;5054818;28;20052;-67
2023/03/01 13:37:44;;;;;;;21.55;13.48;;;;;;;;;;5072095;28;20111;-67
2023/03/01 13:40:18;;;;;;;18.52;13.68;;;;;;;;;;5072766;28;20439;-67
2023/03/01 13:42:48;;;;;;;26.40;14.60;;;;;;;;;;5072866;28;20024;-66
2023/03/01 13:45:20;;;;;;;18.98;14.40;;;;;;;;;;5072771;28;20024;-65
2023/03/01 13:47:49;;;;;;;19.15;14.25;;;;;;;;;;5072997;28;20388;-66
2023/03/01 13:50:24;;;;;;;21.75;14.18;;;;;;;;;;5073219;28;20053;-68
2023/03/01 13:52:53;;;;;;;20.40;14.20;;;;;;;;;;5072656;28;20082;-68
2023/03/01 13:55:21;;;;;;;19.27;13.98;;;;;;;;;;5072469;28;20025;-68
2023/03/01 13:57:53;;;;;;;19.92;14.95;;;;;;;;;;5054538;28;20024;-69
2023/03/01 14:00:29;;;;;;;19.02;14.20;;;;;;;;;;5072656;28;20054;-69
2023/03/01 14:03:03;;;;;;;20.13;14.52;;;;;;;;;;5072294;28;20028;-68
2023/03/01 14:05:30;;;;;;;19.35;14.88;;;;;;;;;;5072323;28;20056;-67
2023/03/01 14:07:56;;;;;;;18.95;14.25;;;;;;;;;;5041926;28;20039;-68
2023/03/01 14:10:22;;;;;;;19.35;14.35;;;;;;;;;;5035505;28;20120;-68
2023/03/01 14:13:08;;;;;;;22.05;14.98;;;;;;;;;;5053336;28;20033;-68
2023/03/01 14:15:44;;;;;;;20.67;14.15;;;;;;;;;;5002070;28;20040;-68
2023/03/01 14:18:13;;;;;;;20.42;14.07;;;;;;;;;;5034575;28;20491;-68
2023/03/01 14:20:43;;;;;;;19.35;14.00;;;;;;;;;;5052478;28;20017;-68
2023/03/01 14:23:14;;;;;;;18.13;13.55;;;;;;;;;;5051720;28;20107;-68
2023/03/01 14:25:47;;;;;;;19.65;13.80;;;;;;;;;;5052624;28;20063;-69
2023/03/01 14:28:13;;;;;;;21.08;14.90;;;;;;;;;;5034033;28;20024;-68